Time;durP1;ratioP1;P1;durP2;ratioP2;P2;SDS_P1;SDS_P2;PMS_P1;PMS_P2;Temp;Humidity;BMP_temperature;BMP_pressure;BME280_temperature;BME280_humidity;BME280_pressure;Samples;Min_cycle;Max_cycle;Signal;HPM_P1;HPM_P2
2022/10/30 00:02:16;;;;;;;11.95;5.63;;;18.10;99.90;;;;;;5030725;28;20191;-71
2022/10/30 00:04:42;;;;;;;10.48;5.95;;;18.00;99.90;;;;;;5021640;28;20680;-71
2022/10/30 00:07:08;;;;;;;14.57;7.00;;;18.00;99.90;;;;;;4991480;28;20282;-72
2022/10/30 00:09:33;;;;;;;9.73;5.75;;;17.90;99.90;;;;;;5006828;28;20640;-71
2022/10/30 00:11:59;;;;;;;11.85;5.97;;;17.90;99.90;;;;;;5027976;28;20599;-71
2022/10/30 00:14:25;;;;;;;9.20;6.15;;;17.80;99.90;;;;;;5033458;28;20640;-72
2022/10/30 00:16:50;;;;;;;7.95;5.15;;;17.80;99.90;;;;;;5016392;28;20566;-72
2022/10/30 00:19:16;;;;;;;8.07;5.47;;;17.70;99.90;;;;;;5029977;28;20767;-72
2022/10/30 00:21:42;;;;;;;7.85;5.25;;;17.70;99.90;;;;;;5015981;28;20187;-71
2022/10/30 00:24:09;;;;;;;13.00;6.72;;;17.70;99.90;;;;;;5017029;28;20217;-71
2022/10/30 00:26:34;;;;;;;7.03;5.13;;;17.60;99.90;;;;;;5013955;28;20187;-71
2022/10/30 00:29:00;;;;;;;11.75;6.47;;;17.60;99.90;;;;;;5014033;28;20205;-71
2022/10/30 00:31:26;;;;;;;8.10;4.65;;;17.60;99.90;;;;;;5021491;28;20186;-71
2022/10/30 00:33:53;;;;;;;7.57;5.18;;;17.60;99.90;;;;;;5028449;28;20188;-71
2022/10/30 00:36:19;;;;;;;12.73;5.90;;;17.60;99.90;;;;;;5032114;28;20190;-71
2022/10/30 00:38:45;;;;;;;7.50;4.57;;;17.50;99.90;;;;;;5034210;28;20178;-71
2022/10/30 00:41:20;;;;;;;7.10;4.95;;;17.50;99.90;;;;;;5013210;28;20194;-72
2022/10/30 00:43:47;;;;;;;7.60;4.18;;;17.50;99.90;;;;;;5023054;28;20174;-73
2022/10/30 00:46:32;;;;;;;7.53;5.18;;;17.50;99.90;;;;;;5032632;28;20201;-71
2022/10/30 00:49:04;;;;;;;6.95;4.00;;;17.50;99.90;;;;;;5026051;28;20186;-72
2022/10/30 00:51:32;;;;;;;10.65;4.97;;;17.50;99.90;;;;;;5032249;28;20682;-72
2022/10/30 00:54:00;;;;;;;7.88;4.20;;;17.40;99.90;;;;;;5013365;28;20656;-72
2022/10/30 00:56:26;;;;;;;9.23;4.78;;;17.40;99.90;;;;;;5022403;28;20278;-72
2022/10/30 00:58:57;;;;;;;6.80;4.50;;;17.40;99.90;;;;;;5024079;28;20190;-71
2022/10/30 01:01:27;;;;;;;9.00;5.05;;;17.40;99.90;;;;;;5033641;28;20241;-72
2022/10/30 01:03:56;;;;;;;8.75;5.07;;;17.40;99.90;;;;;;5032183;28;20536;-71
2022/10/30 01:06:23;;;;;;;8.68;4.55;;;17.40;99.90;;;;;;5032653;28;20317;-71
2022/10/30 01:08:49;;;;;;;12.38;5.50;;;17.30;99.90;;;;;;5030818;28;20183;-72
2022/10/30 01:11:15;;;;;;;8.43;4.32;;;17.30;99.90;;;;;;5013735;28;20266;-70
2022/10/30 01:13:43;;;;;;;8.45;5.00;;;17.30;99.90;;;;;;5031067;28;20274;-71
2022/10/30 01:16:46;;;;;;;7.07;4.47;;;17.30;99.90;;;;;;5031227;28;20193;-72
2022/10/30 01:19:22;;;;;;;7.72;4.75;;;17.40;99.90;;;;;;5024662;28;20610;-72
2022/10/30 01:22:29;;;;;;;10.32;4.38;;;17.40;99.90;;;;;;5031474;28;20662;-71
2022/10/30 01:25:02;;;;;;;9.93;5.15;;;17.50;99.90;;;;;;5029625;28;20206;-71
2022/10/30 01:27:40;;;;;;;6.70;4.22;;;17.60;99.90;;;;;;5033016;28;20199;-72
2022/10/30 01:30:09;;;;;;;8.75;4.32;;;17.50;99.90;;;;;;5032304;28;20182;-72
2022/10/30 01:32:40;;;;;;;7.90;5.00;;;17.40;99.90;;;;;;5030717;28;20194;-72
2022/10/30 01:35:24;;;;;;;6.80;5.25;;;17.30;99.90;;;;;;5022857;28;20321;-72
2022/10/30 01:38:07;;;;;;;5.90;4.93;;;17.30;99.90;;;;;;5021452;28;20182;-73
2022/10/30 01:40:33;;;;;;;6.45;5.25;;;17.30;99.90;;;;;;5022837;28;20278;-73
2022/10/30 01:42:59;;;;;;;9.73;4.55;;;17.40;99.90;;;;;;5030113;28;20269;-72
2022/10/30 01:45:55;;;;;;;6.15;5.13;;;17.40;99.90;;;;;;5028090;28;20750;-71
2022/10/30 01:48:52;;;;;;;15.43;5.60;;;17.40;99.90;;;;;;5021166;28;20245;-71
2022/10/30 01:51:40;;;;;;;8.15;4.63;;;17.30;99.90;;;;;;5031477;28;20183;-71
2022/10/30 01:54:24;;;;;;;9.45;4.50;;;17.40;99.90;;;;;;5020125;28;20187;-71
2022/10/30 01:56:52;;;;;;;6.80;4.40;;;17.40;99.90;;;;;;5024050;28;20190;-71
2022/10/30 01:59:44;;;;;;;10.73;4.70;;;17.40;99.90;;;;;;5031481;28;20662;-71
2022/10/30 02:02:11;;;;;;;7.32;3.97;;;17.30;99.90;;;;;;5018826;28;20716;-71
2022/10/30 02:04:37;;;;;;;11.25;4.25;;;17.20;99.90;;;;;;5027500;28;20259;-71
2022/10/30 02:07:03;;;;;;;6.07;4.22;;;17.10;99.90;;;;;;5031767;28;20186;-71
2022/10/30 02:09:29;;;;;;;8.32;4.95;;;17.10;99.90;;;;;;5032266;28;20191;-71
2022/10/30 02:11:55;;;;;;;9.25;5.10;;;17.40;99.90;;;;;;5024347;28;20191;-70
2022/10/30 02:14:27;;;;;;;9.93;5.70;;;17.50;99.90;;;;;;5032892;28;20570;-70
2022/10/30 02:16:55;;;;;;;9.27;4.85;;;17.30;99.90;;;;;;5034522;28;20179;-71
2022/10/30 02:19:21;;;;;;;6.80;4.47;;;17.20;99.90;;;;;;5032273;28;20190;-71
2022/10/30 02:21:47;;;;;;;9.80;4.78;;;17.10;99.90;;;;;;5022227;28;20191;-71
2022/10/30 02:24:13;;;;;;;11.07;5.30;;;17.00;99.90;;;;;;5014123;28;20210;-71
2022/10/30 02:26:39;;;;;;;7.05;5.38;;;17.00;99.90;;;;;;5031462;28;20190;-71
2022/10/30 02:29:04;;;;;;;14.93;5.18;;;16.90;99.90;;;;;;5010414;28;20203;-71
2022/10/30 02:31:30;;;;;;;11.52;5.95;;;16.90;99.90;;;;;;5024676;28;20194;-72
2022/10/30 02:33:56;;;;;;;7.20;5.22;;;16.90;99.90;;;;;;5030996;28;20183;-71
2022/10/30 02:36:21;;;;;;;8.25;6.03;;;16.90;99.90;;;;;;5041827;28;20320;-71
2022/10/30 02:38:47;;;;;;;11.25;5.80;;;16.90;99.90;;;;;;5012242;28;20198;-71
2022/10/30 02:41:13;;;;;;;7.50;4.68;;;16.80;99.90;;;;;;5010471;28;20187;-71
2022/10/30 02:43:39;;;;;;;10.32;5.68;;;16.70;99.90;;;;;;5010955;28;20570;-71
2022/10/30 02:46:04;;;;;;;5.45;4.72;;;16.70;99.90;;;;;;5046299;28;20230;-71
2022/10/30 02:48:31;;;;;;;6.32;5.05;;;16.70;99.90;;;;;;5028049;28;20198;-71
2022/10/30 02:51:00;;;;;;;11.30;7.18;;;16.70;99.90;;;;;;5027348;28;20198;-71
2022/10/30 02:53:27;;;;;;;8.13;5.07;;;16.60;99.90;;;;;;5031422;28;20193;-71
2022/10/30 02:55:52;;;;;;;7.47;5.68;;;16.60;99.90;;;;;;5022296;28;20196;-72
2022/10/30 02:58:18;;;;;;;7.82;5.47;;;16.50;99.90;;;;;;5030793;28;20643;-71
2022/10/30 03:00:44;;;;;;;10.23;5.38;;;16.50;99.90;;;;;;5026710;28;20195;-71
2022/10/30 03:03:09;;;;;;;8.80;5.28;;;16.50;99.90;;;;;;5048911;28;20190;-71
2022/10/30 03:05:35;;;;;;;12.20;5.05;;;16.60;99.90;;;;;;5034008;28;20225;-71
2022/10/30 03:08:01;;;;;;;10.55;5.22;;;16.50;99.90;;;;;;5035671;28;20226;-71
2022/10/30 03:10:26;;;;;;;9.20;6.15;;;16.40;99.90;;;;;;5016023;28;20281;-71
2022/10/30 03:12:52;;;;;;;6.53;4.82;;;16.40;99.90;;;;;;5032121;28;20269;-72
2022/10/30 03:15:17;;;;;;;13.23;6.40;;;16.40;99.90;;;;;;5034333;28;20214;-71
2022/10/30 03:17:43;;;;;;;13.40;5.00;;;16.40;99.90;;;;;;5034594;28;20620;-71
2022/10/30 03:20:09;;;;;;;8.80;5.75;;;16.40;99.90;;;;;;5015832;28;20190;-71
2022/10/30 03:22:35;;;;;;;13.05;6.72;;;16.30;99.90;;;;;;5019466;28;20217;-71
2022/10/30 03:25:00;;;;;;;17.70;6.07;;;16.30;99.90;;;;;;5024166;28;20235;-73
2022/10/30 03:27:26;;;;;;;7.10;5.18;;;16.30;99.90;;;;;;5020484;28;20217;-70
2022/10/30 03:29:52;;;;;;;9.48;5.65;;;16.30;99.90;;;;;;5032128;28;20199;-72
2022/10/30 03:32:17;;;;;;;11.18;5.53;;;16.30;99.90;;;;;;5028275;28;20558;-71
2022/10/30 03:34:43;;;;;;;11.45;5.88;;;16.30;99.90;;;;;;5033516;28;20218;-71
2022/10/30 03:37:08;;;;;;;12.05;5.95;;;16.20;99.90;;;;;;5027066;28;20293;-71
2022/10/30 03:39:34;;;;;;;16.05;6.85;;;16.20;99.90;;;;;;5017709;28;20215;-71
2022/10/30 03:42:00;;;;;;;11.80;6.13;;;16.20;99.90;;;;;;5034058;28;20635;-72
2022/10/30 03:44:25;;;;;;;8.77;5.78;;;16.10;99.90;;;;;;5028802;28;20206;-71
2022/10/30 03:46:51;;;;;;;10.30;6.55;;;16.20;99.90;;;;;;5015654;28;20191;-71
2022/10/30 03:49:16;;;;;;;6.15;4.95;;;16.20;99.90;;;;;;5032449;28;20186;-71
2022/10/30 03:51:42;;;;;;;8.98;4.88;;;16.20;99.90;;;;;;5015542;28;20269;-73
2022/10/30 03:54:08;;;;;;;12.50;5.93;;;16.10;99.90;;;;;;5020014;28;20658;-71
2022/10/30 03:56:33;;;;;;;10.48;5.47;;;16.10;99.90;;;;;;5021471;28;20199;-71
2022/10/30 03:58:59;;;;;;;12.93;6.50;;;16.20;99.90;;;;;;5021735;28;20605;-71
2022/10/30 04:01:25;;;;;;;8.95;5.88;;;16.20;99.90;;;;;;5034045;28;20218;-71
2022/10/30 04:03:50;;;;;;;8.80;5.20;;;16.10;99.90;;;;;;5033330;28;20273;-71
2022/10/30 04:06:16;;;;;;;10.43;5.57;;;16.10;99.90;;;;;;5032308;28;20191;-71
2022/10/30 04:08:41;;;;;;;11.38;6.03;;;16.20;99.90;;;;;;5034601;28;20187;-71
2022/10/30 04:11:12;;;;;;;7.20;4.88;;;16.30;99.90;;;;;;5033974;28;20261;-72
2022/10/30 04:13:38;;;;;;;11.70;5.90;;;16.10;99.90;;;;;;5033703;28;20186;-72
2022/10/30 04:16:05;;;;;;;7.22;4.82;;;16.10;99.90;;;;;;5017500;28;20191;-71
2022/10/30 04:18:32;;;;;;;10.02;5.57;;;16.10;99.90;;;;;;5028949;28;20198;-71
2022/10/30 04:20:58;;;;;;;12.98;6.32;;;16.10;99.90;;;;;;5011120;28;20246;-71
2022/10/30 04:23:24;;;;;;;9.27;5.78;;;16.20;99.90;;;;;;5034353;28;20190;-71
2022/10/30 04:25:50;;;;;;;11.73;4.88;;;16.00;99.90;;;;;;5029364;28;20218;-71
2022/10/30 04:28:16;;;;;;;8.70;6.25;;;16.00;99.90;;;;;;5032726;28;20229;-71
2022/10/30 04:30:42;;;;;;;15.98;6.55;;;15.90;99.90;;;;;;5034080;28;20183;-72
2022/10/30 04:33:11;;;;;;;10.20;4.78;;;15.90;99.90;;;;;;5031730;28;20702;-71
2022/10/30 04:35:37;;;;;;;10.73;4.75;;;15.80;99.90;;;;;;5031474;28;20193;-71
2022/10/30 04:38:07;;;;;;;9.88;6.30;;;15.80;99.90;;;;;;5034344;28;20198;-71
2022/10/30 04:40:35;;;;;;;15.85;5.55;;;15.80;99.90;;;;;;5033655;28;20187;-71
2022/10/30 04:43:01;;;;;;;7.75;5.28;;;15.70;99.90;;;;;;5030953;28;20183;-72
2022/10/30 04:45:27;;;;;;;8.13;4.55;;;15.70;99.90;;;;;;5009071;28;20230;-71
2022/10/30 04:48:02;;;;;;;9.25;4.57;;;15.60;99.90;;;;;;5027325;28;20191;-71
2022/10/30 04:50:28;;;;;;;11.68;5.38;;;15.60;99.90;;;;;;5030864;28;20194;-71
2022/10/30 04:53:01;;;;;;;13.05;7.53;;;15.60;99.90;;;;;;5028322;28;20182;-71
2022/10/30 04:55:28;;;;;;;10.38;5.30;;;15.50;99.90;;;;;;5026141;28;20196;-72
2022/10/30 04:58:03;;;;;;;13.25;6.03;;;15.50;99.90;;;;;;5028513;28;20190;-71
2022/10/30 05:00:30;;;;;;;12.35;5.63;;;15.40;99.90;;;;;;5032741;28;20558;-71
2022/10/30 05:02:59;;;;;;;9.13;5.78;;;15.40;99.90;;;;;;5014242;28;20186;-71
2022/10/30 05:05:25;;;;;;;11.48;5.25;;;15.30;99.90;;;;;;5032562;28;20221;-72
2022/10/30 05:07:51;;;;;;;10.40;5.03;;;15.30;99.90;;;;;;5033503;28;20187;-70
2022/10/30 05:10:17;;;;;;;10.27;6.43;;;15.20;99.90;;;;;;5033284;28;20201;-71
2022/10/30 05:12:43;;;;;;;10.10;5.25;;;15.20;99.90;;;;;;5022010;28;20195;-71
2022/10/30 05:15:10;;;;;;;13.75;5.85;;;15.20;99.90;;;;;;5031688;28;20190;-72
2022/10/30 05:17:36;;;;;;;15.82;5.72;;;15.20;99.90;;;;;;5029812;28;20186;-71
2022/10/30 05:20:02;;;;;;;8.05;5.40;;;15.10;99.90;;;;;;5027740;28;20183;-72
2022/10/30 05:22:28;;;;;;;7.97;5.50;;;15.10;99.90;;;;;;5032394;28;20369;-71
2022/10/30 05:24:53;;;;;;;11.80;5.05;;;15.10;99.90;;;;;;5028668;28;20751;-72
2022/10/30 05:27:19;;;;;;;10.32;5.18;;;15.10;99.90;;;;;;5026495;28;20186;-71
2022/10/30 05:29:44;;;;;;;11.68;5.32;;;15.00;99.90;;;;;;5027374;28;20555;-71
2022/10/30 05:32:10;;;;;;;15.40;6.32;;;15.00;99.90;;;;;;5032023;28;20210;-72
2022/10/30 05:34:36;;;;;;;12.98;5.95;;;15.00;99.90;;;;;;5025444;28;20548;-71
2022/10/30 05:37:01;;;;;;;8.85;5.60;;;14.90;99.90;;;;;;5026585;28;20190;-71
2022/10/30 05:39:27;;;;;;;9.80;5.38;;;14.90;99.90;;;;;;5025434;28;20244;-71
2022/10/30 05:41:53;;;;;;;13.10;6.05;;;14.80;99.90;;;;;;5031614;28;20183;-72
2022/10/30 05:44:18;;;;;;;8.98;4.97;;;14.80;99.90;;;;;;5030967;28;20218;-71
2022/10/30 05:46:44;;;;;;;8.65;5.15;;;14.80;99.90;;;;;;5030411;28;20183;-72
2022/10/30 05:49:10;;;;;;;10.30;5.40;;;14.80;99.90;;;;;;5033181;28;20269;-71
2022/10/30 05:51:35;;;;;;;9.60;5.47;;;14.80;99.90;;;;;;5026235;28;20550;-72
2022/10/30 05:54:01;;;;;;;8.68;5.63;;;14.70;99.90;;;;;;5035077;28;20191;-72
2022/10/30 05:56:27;;;;;;;7.05;4.60;;;14.70;99.90;;;;;;5033079;28;20182;-71
2022/10/30 05:58:52;;;;;;;13.27;5.85;;;14.70;99.90;;;;;;5023822;28;20187;-72
2022/10/30 06:01:18;;;;;;;7.35;5.55;;;14.60;99.90;;;;;;5031615;28;20608;-72
2022/10/30 06:03:44;;;;;;;14.07;6.38;;;14.60;99.90;;;;;;5032811;28;20197;-71
2022/10/30 06:06:10;;;;;;;7.32;5.70;;;14.60;99.90;;;;;;5031077;28;20249;-71
2022/10/30 06:08:35;;;;;;;12.90;7.28;;;14.70;99.90;;;;;;5019123;28;20232;-71
2022/10/30 06:11:01;;;;;;;10.68;6.35;;;14.70;99.90;;;;;;5032873;28;20214;-72
2022/10/30 06:13:27;;;;;;;11.45;5.88;;;14.70;99.90;;;;;;5028804;28;20289;-71
2022/10/30 06:15:56;;;;;;;13.13;5.90;;;14.70;99.90;;;;;;5031718;28;20658;-71
2022/10/30 06:18:22;;;;;;;9.00;5.55;;;14.60;99.90;;;;;;5022901;28;20282;-71
2022/10/30 06:20:48;;;;;;;12.93;6.28;;;14.70;99.90;;;;;;5019561;28;20338;-71
2022/10/30 06:23:14;;;;;;;10.02;6.20;;;14.70;99.90;;;;;;5018867;28;20305;-72
2022/10/30 06:25:39;;;;;;;10.95;4.82;;;14.70;99.90;;;;;;5020527;28;20310;-71
2022/10/30 06:28:05;;;;;;;13.52;5.95;;;14.70;99.90;;;;;;5032208;28;20206;-71
2022/10/30 06:30:32;;;;;;;11.57;6.30;;;14.70;99.90;;;;;;5017781;28;20202;-71
2022/10/30 06:33:02;;;;;;;6.90;5.15;;;14.70;99.90;;;;;;5026628;28;20277;-71
2022/10/30 06:35:28;;;;;;;9.20;6.35;;;14.70;99.90;;;;;;5020520;28;20210;-72
2022/10/30 06:37:57;;;;;;;12.65;6.20;;;14.70;99.90;;;;;;5027490;28;20195;-71
2022/10/30 06:40:23;;;;;;;10.05;6.00;;;14.70;99.90;;;;;;5020151;28;20628;-72
2022/10/30 06:42:51;;;;;;;7.32;4.88;;;14.70;99.90;;;;;;5030780;28;20195;-71
2022/10/30 06:45:18;;;;;;;11.60;6.20;;;14.70;99.90;;;;;;5020578;28;20293;-72
2022/10/30 06:47:44;;;;;;;9.10;6.03;;;14.80;99.90;;;;;;5027420;28;20545;-71
2022/10/30 06:50:13;;;;;;;10.40;6.38;;;14.80;99.90;;;;;;5013808;28;20234;-72
2022/10/30 06:52:38;;;;;;;12.10;6.47;;;14.80;99.90;;;;;;5030806;28;20178;-71
2022/10/30 06:55:05;;;;;;;15.32;6.10;;;14.80;99.90;;;;;;5029430;28;20248;-70
2022/10/30 06:57:31;;;;;;;6.53;5.80;;;14.80;99.90;;;;;;5024348;28;20188;-72
2022/10/30 06:59:56;;;;;;;11.98;5.35;;;14.90;99.90;;;;;;5026105;28;20190;-71
2022/10/30 07:02:22;;;;;;;11.27;4.60;;;14.90;99.90;;;;;;5026703;28;20273;-72
2022/10/30 07:04:48;;;;;;;10.38;7.10;;;15.00;99.90;;;;;;5044470;28;20294;-72
2022/10/30 07:07:14;;;;;;;11.40;6.53;;;15.00;99.90;;;;;;5026701;28;20238;-70
2022/10/30 07:09:40;;;;;;;17.00;6.70;;;15.10;99.90;;;;;;4995398;28;20281;-72
2022/10/30 07:12:07;;;;;;;9.65;6.03;;;15.20;99.90;;;;;;5032065;28;20265;-71
2022/10/30 07:14:33;;;;;;;12.57;6.43;;;15.30;99.90;;;;;;5027205;28;20198;-71
2022/10/30 07:16:59;;;;;;;9.32;6.53;;;15.40;99.90;;;;;;5030792;28;20178;-71
2022/10/30 07:19:24;;;;;;;9.07;6.05;;;15.50;99.90;;;;;;5023503;28;20202;-72
2022/10/30 07:21:50;;;;;;;13.00;6.13;;;15.70;99.90;;;;;;5026574;28;20236;-70
2022/10/30 07:24:16;;;;;;;11.80;6.53;;;16.00;99.90;;;;;;5010340;28;20218;-72
2022/10/30 07:26:42;;;;;;;11.23;7.03;;;16.30;99.90;;;;;;5019788;28;20193;-74
2022/10/30 07:29:08;;;;;;;12.98;6.82;;;16.60;99.90;;;;;;5025275;28;20280;-72
2022/10/30 07:31:33;;;;;;;12.15;5.95;;;16.70;99.90;;;;;;5024381;28;20709;-72
2022/10/30 07:33:59;;;;;;;10.15;6.03;;;16.90;99.90;;;;;;5017601;28;20202;-71
2022/10/30 07:36:24;;;;;;;14.52;7.15;;;17.00;99.90;;;;;;5019252;28;20198;-73
2022/10/30 07:38:51;;;;;;;13.75;5.38;;;17.00;99.90;;;;;;5014963;28;20194;-71
2022/10/30 07:41:17;;;;;;;14.77;6.15;;;17.00;99.90;;;;;;5026558;28;20182;-73
2022/10/30 07:43:43;;;;;;;13.95;6.70;;;17.10;99.90;;;;;;5027516;28;20183;-74
2022/10/30 07:46:09;;;;;;;11.90;6.65;;;17.20;99.90;;;;;;5022951;28;20223;-72
2022/10/30 07:48:35;;;;;;;16.42;7.50;;;17.30;99.90;;;;;;5024817;28;20191;-68
2022/10/30 07:51:01;;;;;;;16.58;6.60;;;17.30;99.90;;;;;;5026007;28;20581;-73
2022/10/30 07:53:26;;;;;;;12.52;6.32;;;17.50;99.90;;;;;;5029484;28;20274;-73
2022/10/30 07:55:52;;;;;;;13.35;6.30;;;17.60;99.90;;;;;;5025967;28;20225;-72
2022/10/30 07:58:18;;;;;;;9.75;5.68;;;17.70;99.90;;;;;;5021668;28;20222;-70
2022/10/30 08:00:43;;;;;;;11.77;6.35;;;17.70;99.90;;;;;;5030899;28;20190;-72
2022/10/30 08:03:10;;;;;;;12.30;5.78;;;17.60;99.90;;;;;;5031966;28;20697;-70
2022/10/30 08:05:36;;;;;;;9.82;5.65;;;17.50;99.90;;;;;;5026767;28;20210;-71
2022/10/30 08:08:02;;;;;;;13.63;7.28;;;17.50;99.90;;;;;;5030618;28;20293;-70
2022/10/30 08:10:28;;;;;;;13.00;5.55;;;17.50;99.90;;;;;;5029067;28;20559;-71
2022/10/30 08:12:53;;;;;;;8.73;6.05;;;17.50;99.90;;;;;;5013494;28;20588;-68
2022/10/30 08:15:19;;;;;;;14.55;6.32;;;17.60;99.90;;;;;;5031275;28;20251;-70
2022/10/30 08:17:47;;;;;;;10.68;5.72;;;17.70;99.90;;;;;;5023505;28;20277;-72
2022/10/30 08:20:15;;;;;;;11.57;6.55;;;17.80;99.90;;;;;;5032906;28;20213;-73
2022/10/30 08:22:45;;;;;;;15.10;6.35;;;18.00;99.90;;;;;;5029442;28;20190;-70
2022/10/30 08:25:11;;;;;;;11.23;6.07;;;18.00;99.90;;;;;;5033742;28;20219;-72
2022/10/30 08:27:36;;;;;;;11.20;5.97;;;18.10;99.90;;;;;;5031977;28;20203;-71
2022/10/30 08:30:02;;;;;;;15.45;6.88;;;18.20;99.90;;;;;;5029267;28;20202;-69
2022/10/30 08:32:28;;;;;;;10.00;5.47;;;18.30;99.90;;;;;;5029420;28;20238;-70
2022/10/30 08:34:53;;;;;;;10.52;6.30;;;18.30;99.90;;;;;;5020645;28;20191;-70
2022/10/30 08:37:19;;;;;;;11.55;5.97;;;18.30;99.90;;;;;;5015992;28;20210;-70
2022/10/30 08:39:45;;;;;;;10.38;5.75;;;18.30;99.90;;;;;;5029510;28;20277;-70
2022/10/30 08:42:10;;;;;;;12.32;6.03;;;18.30;99.90;;;;;;5023853;28;20202;-69
2022/10/30 08:44:36;;;;;;;8.60;5.32;;;18.30;99.90;;;;;;5030901;28;20302;-70
2022/10/30 08:47:01;;;;;;;8.50;6.80;;;18.30;99.90;;;;;;5023112;28;20544;-71
2022/10/30 08:49:27;;;;;;;9.32;5.13;;;18.40;99.90;;;;;;5020306;28;20712;-71
2022/10/30 08:51:53;;;;;;;10.60;6.53;;;18.40;99.90;;;;;;4995253;28;20264;-70
2022/10/30 08:54:18;;;;;;;11.93;6.35;;;18.50;99.90;;;;;;5027891;28;20702;-69
2022/10/30 08:56:44;;;;;;;11.95;5.53;;;18.50;99.90;;;;;;5030747;28;20644;-72
2022/10/30 08:59:10;;;;;;;12.48;6.30;;;18.50;99.90;;;;;;5023898;28;20214;-69
2022/10/30 09:01:35;;;;;;;10.15;6.35;;;18.60;99.90;;;;;;5023440;28;20544;-69
2022/10/30 09:04:01;;;;;;;15.02;6.15;;;18.60;99.90;;;;;;5029864;28;20500;-70
2022/10/30 09:06:27;;;;;;;12.80;7.40;;;18.60;99.90;;;;;;5024383;28;20204;-68
2022/10/30 09:08:52;;;;;;;12.02;6.53;;;18.50;99.90;;;;;;5019384;28;20234;-68
2022/10/30 09:11:18;;;;;;;12.32;6.82;;;18.40;99.90;;;;;;5030631;28;20642;-69
2022/10/30 09:13:43;;;;;;;18.80;6.85;;;18.40;99.90;;;;;;5026817;28;20275;-71
2022/10/30 09:16:09;;;;;;;13.32;7.45;;;18.30;99.90;;;;;;5017069;28;20305;-71
2022/10/30 09:18:35;;;;;;;11.95;6.75;;;18.40;99.90;;;;;;5027210;28;20197;-69
2022/10/30 09:21:00;;;;;;;14.85;6.63;;;18.40;99.90;;;;;;5031058;28;20241;-68
2022/10/30 09:23:26;;;;;;;15.60;8.20;;;18.40;99.90;;;;;;5027514;28;20187;-69
2022/10/30 09:25:51;;;;;;;13.18;6.93;;;18.40;99.90;;;;;;5026351;28;20226;-68
2022/10/30 09:28:17;;;;;;;14.73;8.13;;;18.50;99.90;;;;;;5029983;28;20242;-68
2022/10/30 09:30:43;;;;;;;16.00;8.48;;;18.60;99.90;;;;;;5014452;28;20187;-71
2022/10/30 09:33:09;;;;;;;17.98;7.35;;;18.70;99.90;;;;;;5022036;28;20194;-69
2022/10/30 09:35:35;;;;;;;19.73;7.47;;;18.80;99.90;;;;;;5025568;28;20321;-68
2022/10/30 09:38:01;;;;;;;13.25;7.82;;;18.80;99.90;;;;;;5027353;28;20566;-70
2022/10/30 09:40:41;;;;;;;15.73;8.45;;;18.90;99.90;;;;;;5007915;28;20206;-68
2022/10/30 09:43:12;;;;;;;11.35;6.80;;;18.90;99.90;;;;;;5022932;28;20316;-70
2022/10/30 09:45:55;;;;;;;14.85;8.07;;;19.10;99.90;;;;;;5026084;28;20314;-71
2022/10/30 09:48:23;;;;;;;13.15;6.00;;;19.20;99.90;;;;;;5023545;28;20229;-70
2022/10/30 09:51:26;;;;;;;13.02;7.90;;;19.50;99.90;;;;;;5023363;28;20214;-68
2022/10/30 09:54:05;;;;;;;12.90;7.35;;;19.70;99.90;;;;;;5020896;28;20241;-70
2022/10/30 09:56:33;;;;;;;23.15;10.30;;;19.50;99.90;;;;;;5022457;28;20190;-70
2022/10/30 09:59:10;;;;;;;14.77;7.85;;;19.60;99.90;;;;;;5028062;28;20201;-71
2022/10/30 10:01:50;;;;;;;13.45;6.22;;;19.70;99.90;;;;;;5022875;28;20182;-70
2022/10/30 10:04:25;;;;;;;10.32;6.20;;;19.90;99.90;;;;;;5039976;28;20281;-70
2022/10/30 10:07:09;;;;;;;8.93;5.63;;;19.80;99.90;;;;;;5017716;28;20182;-69
2022/10/30 10:09:38;;;;;;;9.50;5.13;;;19.80;99.90;;;;;;5019262;28;20179;-69
2022/10/30 10:12:18;;;;;;;11.55;5.38;;;19.90;99.90;;;;;;5030443;28;20183;-70
2022/10/30 10:14:46;;;;;;;15.02;6.93;;;20.10;99.90;;;;;;5016784;28;20270;-69
2022/10/30 10:17:24;;;;;;;12.75;5.30;;;20.10;99.90;;;;;;5027520;28;20197;-67
2022/10/30 10:20:00;;;;;;;9.55;4.78;;;20.00;99.90;;;;;;5028004;28;20638;-69
2022/10/30 10:22:35;;;;;;;8.52;5.50;;;20.10;99.90;;;;;;5019979;28;20198;-69
2022/10/30 10:25:05;;;;;;;14.45;5.90;;;20.10;99.90;;;;;;5018482;28;20206;-70
2022/10/30 10:27:55;;;;;;;12.02;5.32;;;20.20;99.90;;;;;;5021170;28;20198;-69
2022/10/30 10:30:23;;;;;;;11.80;4.65;;;20.30;99.90;;;;;;5030175;28;20191;-69
2022/10/30 10:33:07;;;;;;;8.27;4.20;;;20.30;99.90;;;;;;5018595;28;20710;-71
2022/10/30 10:35:59;;;;;;;14.95;6.82;;;20.40;99.90;;;;;;5026914;28;20210;-71
2022/10/30 10:38:34;;;;;;;8.45;5.22;;;20.50;99.90;;;;;;5019178;28;20717;-71
2022/10/30 10:41:18;;;;;;;13.10;7.88;;;20.40;99.90;;;;;;5030893;28;20269;-71
2022/10/30 10:44:05;;;;;;;13.73;5.72;;;20.40;99.90;;;;;;5016112;28;20175;-72
2022/10/30 10:46:40;;;;;;;13.43;6.90;;;20.50;99.90;;;;;;5027114;28;20277;-67
2022/10/30 10:49:35;;;;;;;27.95;12.23;;;20.70;99.90;;;;;;5031013;28;20178;-66
2022/10/30 10:52:10;;;;;;;15.13;7.55;;;20.90;99.90;;;;;;5024514;28;20192;-67
2022/10/30 10:54:44;;;;;;;15.88;5.07;;;20.80;99.90;;;;;;5031028;28;20186;-65
2022/10/30 10:57:25;;;;;;;13.63;6.18;;;20.80;99.90;;;;;;5031168;28;20221;-66
2022/10/30 11:00:01;;;;;;;9.13;4.57;;;20.80;99.90;;;;;;5016691;28;20181;-68
2022/10/30 11:02:42;;;;;;;9.43;5.63;;;20.80;99.90;;;;;;5016745;28;20205;-65
2022/10/30 11:05:30;;;;;;;7.78;5.55;;;20.90;99.90;;;;;;5030672;28;20229;-66
2022/10/30 11:08:02;;;;;;;6.28;4.70;;;20.80;99.90;;;;;;5025239;28;20679;-66
2022/10/30 11:10:28;;;;;;;6.05;4.22;;;21.00;99.90;;;;;;5017716;28;20183;-67
2022/10/30 11:12:54;;;;;;;10.55;5.88;;;21.20;99.90;;;;;;5019129;28;20277;-68
2022/10/30 11:15:31;;;;;;;11.23;5.28;;;21.20;99.90;;;;;;5018412;28;20187;-68
2022/10/30 11:17:59;;;;;;;6.93;4.38;;;21.20;99.90;;;;;;5034362;28;20264;-68
2022/10/30 11:21:08;;;;;;;11.32;6.20;;;21.30;99.90;;;;;;5033087;28;20182;-68
2022/10/30 11:23:41;;;;;;;8.98;5.25;;;21.30;99.90;;;;;;5035314;28;20183;-69
2022/10/30 11:26:29;;;;;;;8.32;4.75;;;21.20;99.90;;;;;;5047247;28;20221;-68
2022/10/30 11:29:09;;;;;;;10.00;4.57;;;21.20;99.90;;;;;;5035763;28;20221;-69
2022/10/30 11:31:43;;;;;;;6.57;4.47;;;21.40;99.90;;;;;;5033673;28;20186;-67
2022/10/30 11:34:17;;;;;;;8.77;4.43;;;21.50;99.90;;;;;;5035044;28;20551;-68
2022/10/30 11:36:53;;;;;;;7.32;4.57;;;21.70;99.90;;;;;;5031703;28;20189;-68
2022/10/30 11:39:31;;;;;;;9.52;4.85;;;21.90;99.90;;;;;;5031141;28;20183;-67
2022/10/30 11:42:05;;;;;;;9.07;4.35;;;21.70;99.90;;;;;;5030980;28;20537;-68
2022/10/30 11:44:35;;;;;;;11.18;5.32;;;21.60;99.90;;;;;;5025650;28;20210;-68
2022/10/30 11:47:03;;;;;;;11.48;4.72;;;21.60;99.90;;;;;;5028413;28;20171;-68
2022/10/30 11:49:38;;;;;;;6.55;4.07;;;21.60;99.90;;;;;;5049570;28;20188;-68
2022/10/30 11:52:05;;;;;;;7.80;4.30;;;21.80;99.90;;;;;;5030807;28;20681;-68
2022/10/30 11:54:36;;;;;;;9.88;4.68;;;22.00;99.90;;;;;;5031615;28;20190;-68
2022/10/30 11:57:02;;;;;;;10.88;5.55;;;22.20;99.90;;;;;;5033349;28;20537;-68
2022/10/30 11:59:28;;;;;;;7.97;4.88;;;22.20;99.90;;;;;;5034954;28;20183;-68
2022/10/30 12:02:28;;;;;;;8.38;4.22;;;22.20;99.90;;;;;;5025059;28;20191;-68
2022/10/30 12:05:01;;;;;;;7.07;4.68;;;22.10;99.90;;;;;;5035364;28;20251;-68
2022/10/30 12:07:30;;;;;;;8.60;4.10;;;22.20;99.90;;;;;;5029058;28;20186;-68
2022/10/30 12:09:58;;;;;;;5.05;4.10;;;22.20;99.90;;;;;;5034313;28;20182;-68
2022/10/30 12:12:28;;;;;;;9.30;4.38;;;22.30;99.90;;;;;;5034741;28;20245;-68
2022/10/30 12:14:54;;;;;;;8.20;3.97;;;22.20;99.90;;;;;;5026090;28;20187;-68
2022/10/30 12:17:21;;;;;;;6.05;3.88;;;22.20;99.90;;;;;;5015863;28;20532;-68
2022/10/30 12:19:50;;;;;;;9.18;5.35;;;22.00;99.90;;;;;;5020105;28;20662;-68
2022/10/30 12:22:29;;;;;;;5.72;4.15;;;22.10;99.90;;;;;;5032633;28;20185;-68
2022/10/30 12:24:57;;;;;;;6.10;4.22;;;22.00;99.90;;;;;;5024886;28;20332;-67
2022/10/30 12:27:23;;;;;;;6.93;3.75;;;22.00;99.90;;;;;;5034629;28;20190;-67
2022/10/30 12:30:01;;;;;;;4.78;3.65;;;22.10;99.90;;;;;;5019001;28;20520;-67
2022/10/30 12:32:52;;;;;;;6.25;4.00;;;22.00;99.90;;;;;;5027272;28;20244;-67
2022/10/30 12:35:23;;;;;;;12.10;4.18;;;22.10;99.90;;;;;;5011997;28;20653;-67
2022/10/30 12:37:52;;;;;;;10.82;4.15;;;22.40;99.90;;;;;;5027079;28;20698;-67
2022/10/30 12:40:27;;;;;;;6.18;4.25;;;22.40;99.90;;;;;;5032921;28;20190;-69
2022/10/30 12:43:07;;;;;;;6.43;3.58;;;22.20;99.90;;;;;;5024695;28;20639;-68
2022/10/30 12:46:16;;;;;;;9.70;5.88;;;22.10;99.90;;;;;;5027230;28;20210;-68
2022/10/30 12:49:01;;;;;;;7.97;3.95;;;22.20;99.90;;;;;;5030571;28;20726;-68
2022/10/30 12:51:34;;;;;;;10.05;3.80;;;22.00;99.90;;;;;;5021804;28;20577;-68
2022/10/30 12:54:28;;;;;;;14.25;4.53;;;22.10;99.90;;;;;;5033167;28;20182;-68